Nearby METAR Reports

 

KBMG - Bloomington, Indiana, USA
Distance from station: SSE 11mi, 18km
Updated: Thu, 23-Jan-2020 8:37pm EST
Light rain, Mist, Overcast
Light rain, Mist, Overcast
 Wind from ESE
Wind: ESE 13 mph , 20 km/h
Temperature: 39°F , 4°C
Wind Chill: 31°F , -1°C
Dew Point: 36°F , 2°C
Humidity: 87%
Barometer: 29.99 inHg , 1015.6 hPa
Summary: Light rain, Mist
Clouds: Overcast
Visibility: 5 miles , 8 km
Cloud details: Few Clouds 800 ft
Mostly cloudy 1700 ft
Overcast 4200 ft
2020/01/24 01:37 KBMG 240137Z 12011KT 5SM -RA BR FEW008 BKN017 OVC042 04/02 A2999 RMK AO2 P0001 T00390022
KGPC - Greencastle, Indiana, USA
Distance from station: NNW 24mi, 39km
Updated: Thu, 23-Jan-2020 8:55pm EST

 
2020/01/24 01:55 KGPC 240155Z AUTO RMK AO2 PWINO TSNO
 
KHUF - Terre Haute, Indiana, USA
Distance from station: WNW 34mi, 54km
Updated: Thu, 23-Jan-2020 8:53pm EST
Light rain, Overcast
Light rain, Overcast
 Wind from ESE
Wind: ESE 8 mph , 13 km/h
Temperature: 37°F , 3°C
Wind Chill: 31°F , -1°C
Dew Point: 34°F , 1°C
Humidity: 87%
Barometer: 29.97 inHg , 1014.9 hPa
Summary: Light rain
Clouds: Overcast
Visibility: 10 miles , 16 km
Cloud details: Partly cloudy 2900 ft
Overcast 3800 ft
2020/01/24 01:53 KHUF 240153Z 11007KT 10SM -RA SCT029 OVC038 03/01 A2997 RMK AO2 SLP152 P0001 T00330006
KIND - Indianapolis, Indiana, USA
Distance from station: NE 36mi, 58km
Updated: Thu, 23-Jan-2020 8:54pm EST
Light rain, Overcast
Light rain, Overcast
 Wind from E
Wind: E 12 mph , 19 km/h
Temperature: 39°F , 4°C
Wind Chill: 32°F , 0°C
Dew Point: 34°F , 1°C
Humidity: 81%
Barometer: 30.00 inHg , 1015.9 hPa
Summary: Light rain
Clouds: Overcast
Visibility: 8 miles , 13 km
Cloud details: Few Clouds 2800 ft
Partly cloudy 3500 ft
Overcast 4700 ft
2020/01/24 01:54 KIND 240154Z 10010KT 8SM -RA FEW028 SCT035 OVC047 04/01 A3000 RMK AO2 SLP166 P0000 T00390006
 
KHFY - Indianapolis, Indiana, USA
Distance from station: NE 40mi, 65km
Updated: Thu, 23-Jan-2020 4:10pm EST
NOT Current
Overcast
Overcast
 Wind from SSE
Wind: SSE 8 mph , 13 km/h
Temperature: 43°F , 6°C
Wind Chill: 38°F , 3°C
Dew Point: 23°F , -5°C
Humidity: 46%
Barometer: 30.07 inHg , 1018.3 hPa
Clouds: Overcast
Visibility: 10 miles , 16 km
Cloud details: Partly cloudy 7000 ft
Overcast 8000 ft
2020/01/23 21:10 KHFY 232110Z AUTO 15007KT 10SM SCT070 OVC080 06/M05 A3007 RMK AO2 T00561053
KBAK - Columbus/Balkala, Indiana, USA
Distance from station: E 43mi, 69km
Updated: Thu, 23-Jan-2020 8:50pm EST
Light rain, Mist, Overcast
Light rain, Mist, Overcast
 Wind from ESE
Wind: ESE 9 mph , 15 km/h
Temperature: 37°F , 3°C
Wind Chill: 30°F , -1°C
Dew Point: 36°F , 2°C
Humidity: 93%
Barometer: 30.04 inHg , 1017.3 hPa
Summary: Light rain, Mist
Clouds: Overcast
Visibility: 4 miles , 6 km
Cloud details: Overcast 1800 ft
2020/01/24 01:50 KBAK 240150Z 11008KT 4SM -RA BR OVC018 03/02 A3004
 
KEYE - Indianapolis, Indiana, USA
Distance from station: NNE 43mi, 69km
Updated: Thu, 23-Jan-2020 8:53pm EST
Light rain, Overcast
Light rain, Overcast
 Wind from ESE
Wind: ESE 8 mph , 13 km/h
Temperature: 39°F , 4°C
Wind Chill: 33°F , 1°C
Dew Point: 32°F , 0°C
Humidity: 75%
Barometer: 30.01 inHg , 1016.3 hPa
Summary: Light rain
Clouds: Overcast
Visibility: 10 miles , 16 km
Cloud details: Mostly cloudy 2700 ft
Overcast 3800 ft
2020/01/24 01:53 KEYE 240153Z AUTO 11007KT 10SM -RA BKN027 OVC038 04/00 A3001 RMK AO2 RAE03B51 SLP168 P0000 T00390000
KDCY - Daviess County, Indiana, USA
Distance from station: SSW 47mi, 76km
Updated: Thu, 23-Jan-2020 8:35pm EST
Light drizzle, Overcast
Light drizzle, Overcast
 Wind from ESE
Wind: ESE 9 mph , 15 km/h
Temperature: 39°F , 4°C
Wind Chill: 33°F , 1°C
Dew Point: 39°F , 4°C
Humidity: 100%
Barometer: 29.97 inHg , 1014.9 hPa
Summary: Light Drizzle
Clouds: Overcast
Visibility: 10 miles , 16 km
Cloud details: Partly cloudy 900 ft
Overcast 2200 ft
2020/01/24 01:35 KDCY 240135Z AUTO 12008KT 10SM -DZ SCT009 OVC022 04/04 A2997 RMK AO2 T00380037
 
KCFJ - Crawfordsville, Indiana, USA
Distance from station: NNW 49mi, 78km
Updated: Thu, 23-Jan-2020 8:55pm EST
Overcast
Overcast
 Wind from E
Wind: E 7 mph , 11 km/h
Temperature: 36°F , 2°C
Wind Chill: 30°F , -1°C
Dew Point: 30°F , -1°C
Humidity: 81%
Barometer: 29.99 inHg , 1015.6 hPa
Clouds: Overcast
Visibility: 10 miles , 16 km
Cloud details: Partly cloudy 3500 ft
Overcast 4300 ft
2020/01/24 01:55 KCFJ 240155Z AUTO 09006KT 10SM SCT035 OVC043 02/M01 A2999 RMK AO2 T00161008